Time;durP1;ratioP1;P1;durP2;ratioP2;P2;SDS_P1;SDS_P2;PMS_P1;PMS_P2;Temp;Humidity;BMP_temperature;BMP_pressure;BME280_temperature;BME280_humidity;BME280_pressure;Samples;Min_cycle;Max_cycle;Signal;HPM_P1;HPM_P2
2023/01/02 00:00:39;;;;;;;9.83;9.13;;;;;;;7.48;83.43;101408.41;464493;114;922894;-77
2023/01/02 00:01:43;;;;;;;10.29;9.49;;;;;;;7.49;83.43;101407.39;459776;115;922624;-78
2023/01/02 00:02:46;;;;;;;9.79;9.11;;;;;;;7.50;83.51;101408.20;462094;114;922959;-79
2023/01/02 00:03:49;;;;;;;10.13;9.27;;;;;;;7.50;83.45;101409.06;458041;113;923023;-78
2023/01/02 00:04:53;;;;;;;10.04;9.34;;;;;;;7.51;83.49;101418.90;458393;113;922780;-78
2023/01/02 00:05:56;;;;;;;10.28;9.56;;;;;;;7.50;83.44;101417.20;458398;115;922406;-79
2023/01/02 00:06:59;;;;;;;10.55;9.71;;;;;;;7.51;83.44;101426.19;458451;113;922600;-78
2023/01/02 00:08:03;;;;;;;10.56;9.73;;;;;;;7.52;83.42;101430.61;460443;114;923390;-77
2023/01/02 00:09:07;;;;;;;10.04;9.34;;;;;;;7.52;83.46;101427.89;464534;114;922867;-78
2023/01/02 00:10:11;;;;;;;10.36;9.59;;;;;;;7.51;83.36;101437.05;461479;113;922415;-78
2023/01/02 00:11:15;;;;;;;10.71;9.86;;;;;;;7.50;83.47;101430.77;458308;113;922815;-78
2023/01/02 00:12:18;;;;;;;10.35;9.62;;;;;;;7.51;83.44;101429.75;458433;113;922561;-79
2023/01/02 00:13:21;;;;;;;9.93;9.22;;;;;;;7.51;83.44;101434.33;455127;113;922917;-78
2023/01/02 00:14:24;;;;;;;10.11;9.29;;;;;;;7.51;83.42;101435.18;453868;116;922478;-79
2023/01/02 00:15:27;;;;;;;10.81;9.94;;;;;;;7.51;83.33;101437.89;453626;116;922810;-76
2023/01/02 00:16:31;;;;;;;10.53;9.58;;;;;;;7.52;83.36;101436.87;451177;117;923047;-77
2023/01/02 00:17:34;;;;;;;10.09;9.42;;;;;;;7.53;83.26;101435.86;452001;115;922895;-77
2023/01/02 00:18:37;;;;;;;10.11;9.34;;;;;;;7.53;83.33;101438.58;461033;113;922983;-77
2023/01/02 00:19:40;;;;;;;10.56;9.63;;;;;;;7.53;83.33;101438.58;458432;115;923223;-78
2023/01/02 00:20:44;;;;;;;10.70;9.85;;;;;;;7.54;83.32;101440.28;458357;115;923022;-79
2023/01/02 00:21:47;;;;;;;10.91;10.16;;;;;;;7.55;83.32;101435.70;458428;113;923013;-78
2023/01/02 00:22:50;;;;;;;9.58;8.93;;;;;;;7.55;83.19;101444.66;458491;113;923008;-78
2023/01/02 00:23:54;;;;;;;10.64;9.71;;;;;;;7.56;83.17;101448.22;458689;114;923111;-78
2023/01/02 00:24:57;;;;;;;10.10;9.40;;;;;;;7.57;83.18;101457.21;463235;113;922941;-78
2023/01/02 00:26:00;;;;;;;10.71;9.91;;;;;;;7.57;83.23;101449.92;459916;114;922548;-78
2023/01/02 00:27:03;;;;;;;9.99;9.22;;;;;;;7.56;83.16;101450.94;458398;115;922548;-77
2023/01/02 00:28:07;;;;;;;10.64;9.87;;;;;;;7.56;83.20;101456.36;461005;114;922990;-78
2023/01/02 00:29:10;;;;;;;10.04;9.19;;;;;;;7.55;83.17;101460.13;456192;115;923024;-78
2023/01/02 00:30:13;;;;;;;10.57;9.76;;;;;;;7.53;83.05;101452.15;451927;115;922823;-79
2023/01/02 00:31:16;;;;;;;10.43;9.59;;;;;;;7.53;83.07;101459.44;453648;115;922627;-77
2023/01/02 00:32:20;;;;;;;11.41;10.54;;;;;;;7.53;83.03;101462.15;456519;115;922828;-76
2023/01/02 00:33:23;;;;;;;11.34;10.53;;;;;;;7.51;83.03;101454.17;456774;114;922628;-77
2023/01/02 00:34:26;;;;;;;9.82;9.15;;;;;;;7.51;83.07;101459.60;452270;115;922998;-79
2023/01/02 00:35:30;;;;;;;11.32;10.44;;;;;;;7.50;83.07;101449.77;453379;115;922572;-78
2023/01/02 00:36:33;;;;;;;10.71;9.91;;;;;;;7.50;83.04;101457.05;456517;115;922677;-78
2023/01/02 00:37:36;;;;;;;10.26;9.47;;;;;;;7.50;83.14;101446.20;451945;115;922561;-78
2023/01/02 00:38:40;;;;;;;10.85;10.04;;;;;;;7.49;83.06;101456.23;458907;115;922518;-77
2023/01/02 00:39:43;;;;;;;10.34;9.51;;;;;;;7.48;83.13;101448.27;459303;115;922572;-77
2023/01/02 00:40:46;;;;;;;10.53;9.83;;;;;;;7.48;83.06;101456.41;459270;115;930468;-78
2023/01/02 00:41:49;;;;;;;11.02;10.11;;;;;;;7.48;83.07;101454.54;460446;114;921853;-78
2023/01/02 00:42:53;;;;;;;11.76;10.88;;;;;;;7.47;83.07;101460.13;461535;111;922178;-78
2023/01/02 00:43:56;;;;;;;11.29;9.91;;;;;;;7.46;83.07;101447.58;461699;115;922483;-77
2023/01/02 00:44:59;;;;;;;10.46;9.56;;;;;;;7.45;83.06;101448.59;461608;112;922056;-77
2023/01/02 00:46:02;;;;;;;10.72;9.92;;;;;;;7.42;82.93;101444.38;460452;114;922146;-77
2023/01/02 00:47:07;;;;;;;10.26;9.43;;;;;;;7.41;83.08;101448.10;459423;115;922059;-78
2023/01/02 00:48:10;;;;;;;11.18;10.36;;;;;;;7.40;83.10;101459.12;461791;113;922042;-78
2023/01/02 00:49:13;;;;;;;10.33;9.59;;;;;;;7.38;83.13;101462.02;462674;114;923164;-79
2023/01/02 00:50:16;;;;;;;10.80;9.76;;;;;;;7.38;83.07;101466.60;456196;114;922528;-79
2023/01/02 00:51:19;;;;;;;10.91;9.99;;;;;;;7.36;83.18;101455.91;459283;114;922834;-78
2023/01/02 00:52:22;;;;;;;10.96;10.23;;;;;;;7.36;83.20;101455.06;462454;114;922556;-78
2023/01/02 00:53:26;;;;;;;10.47;9.64;;;;;;;7.35;83.20;101447.94;459858;114;922908;-80
2023/01/02 00:54:29;;;;;;;11.23;9.69;;;;;;;7.34;83.17;101454.37;458947;115;922555;-77
2023/01/02 00:55:32;;;;;;;10.86;10.03;;;;;;;7.33;83.29;101447.28;461116;114;922958;-77
2023/01/02 00:56:35;;;;;;;10.79;9.66;;;;;;;7.33;83.32;101444.58;460321;113;923009;-79
2023/01/02 00:57:39;;;;;;;10.99;10.21;;;;;;;7.31;83.32;101443.89;461502;114;922542;-77
2023/01/02 00:58:42;;;;;;;11.10;10.30;;;;;;;7.30;83.40;101444.90;451842;113;922819;-79
2023/01/02 00:59:45;;;;;;;10.33;9.53;;;;;;;7.30;83.32;101436.77;454337;116;922484;-78
2023/01/02 01:00:49;;;;;;;9.89;8.92;;;;;;;7.28;83.34;101446.92;454987;115;922528;-78
2023/01/02 01:01:53;;;;;;;10.48;9.74;;;;;;;7.27;83.34;101447.97;452735;116;922650;-78
2023/01/02 01:02:57;;;;;;;10.70;9.94;;;;;;;7.26;83.42;101440.84;454049;115;930533;-77
2023/01/02 01:04:00;;;;;;;11.64;10.78;;;;;;;7.26;83.39;101435.42;449232;118;922972;-78
2023/01/02 01:05:04;;;;;;;10.58;9.71;;;;;;;7.25;83.53;101436.44;457427;115;922534;-78
2023/01/02 01:06:10;;;;;;;10.50;9.65;;;;;;;7.25;83.43;101437.28;457613;115;922622;-78
2023/01/02 01:07:13;;;;;;;11.13;10.12;;;;;;;7.25;83.45;101431.02;457580;115;922559;-78
2023/01/02 01:08:16;;;;;;;10.94;10.09;;;;;;;7.25;83.47;101431.86;457303;115;922564;-77
2023/01/02 01:09:19;;;;;;;10.99;10.25;;;;;;;7.24;83.53;101429.31;458972;115;922834;-77
2023/01/02 01:10:24;;;;;;;10.66;9.82;;;;;;;7.23;83.61;101433.03;456199;114;922572;-78
2023/01/02 01:11:28;;;;;;;10.75;9.96;;;;;;;7.24;83.53;101440.16;449345;117;922601;-77
2023/01/02 01:12:32;;;;;;;10.99;10.13;;;;;;;7.23;83.53;101438.46;445564;118;922636;-77
2023/01/02 01:13:36;;;;;;;11.36;10.53;;;;;;;7.21;83.51;101435.95;441487;118;922802;-77
2023/01/02 01:14:39;;;;;;;10.31;9.56;;;;;;;7.22;83.53;101434.08;444136;119;922585;-77
2023/01/02 01:15:43;;;;;;;10.51;9.54;;;;;;;7.21;83.49;101429.67;444116;119;922690;-77
2023/01/02 01:16:46;;;;;;;10.91;10.01;;;;;;;7.21;83.63;101435.09;444422;119;923219;-78
2023/01/02 01:17:49;;;;;;;10.74;9.94;;;;;;;7.20;83.55;101441.53;443788;117;922533;-79
2023/01/02 01:18:56;;;;;;;11.21;10.32;;;;;;;7.19;83.61;101437.97;445393;118;922589;-78
2023/01/02 01:19:59;;;;;;;11.15;10.19;;;;;;;7.20;83.71;101436.11;464876;114;924345;-78
2023/01/02 01:21:12;;;;;;;10.62;9.70;;;;;;;7.18;83.75;101433.56;461387;114;922517;-78
2023/01/02 01:22:22;;;;;;;10.29;9.59;;;;;;;7.30;83.78;101439.47;477230;110;947228;-76
2023/01/02 01:23:25;;;;;;;10.86;10.05;;;;;;;7.18;83.71;101436.27;460219;114;922531;-79
2023/01/02 01:24:29;;;;;;;10.83;10.02;;;;;;;7.18;83.68;101436.27;455927;116;922488;-79
2023/01/02 01:25:32;;;;;;;11.25;10.36;;;;;;;7.18;83.74;101438.13;455957;116;922606;-78
2023/01/02 01:26:35;;;;;;;10.78;9.97;;;;;;;7.18;83.74;101435.42;458210;115;922646;-78
2023/01/02 01:27:39;;;;;;;10.59;9.81;;;;;;;7.16;83.79;101427.48;460295;115;922446;-78
2023/01/02 01:28:42;;;;;;;11.41;10.51;;;;;;;7.18;83.79;101432.70;470484;112;922057;-77
2023/01/02 01:29:46;;;;;;;9.96;9.26;;;;;;;7.17;83.65;101431.86;471587;112;922547;-79
2023/01/02 01:30:49;;;;;;;10.23;9.53;;;;;;;7.18;83.75;101427.28;471607;112;922470;-78
2023/01/02 01:31:52;;;;;;;11.32;10.45;;;;;;;7.17;83.65;101429.15;472008;112;922559;-78
2023/01/02 01:32:55;;;;;;;10.38;9.36;;;;;;;7.17;83.73;101431.05;470684;112;922476;-77
2023/01/02 01:33:58;;;;;;;11.51;10.71;;;;;;;7.17;83.61;101431.05;454098;117;922537;-78
2023/01/02 01:35:01;;;;;;;10.71;9.78;;;;;;;7.16;83.65;101430.19;463361;114;922610;-77
2023/01/02 01:36:11;;;;;;;10.51;9.74;;;;;;;7.17;83.56;101433.75;463211;114;922507;-78
2023/01/02 01:37:14;;;;;;;10.76;9.93;;;;;;;7.15;83.62;101424.93;463183;114;922558;-79
2023/01/02 01:38:17;;;;;;;10.64;9.84;;;;;;;7.16;83.59;101437.48;463850;112;922487;-79
2023/01/02 01:39:20;;;;;;;11.21;10.32;;;;;;;7.14;83.70;101432.22;463414;114;922570;-78
2023/01/02 01:40:24;;;;;;;10.45;9.58;;;;;;;7.13;83.69;101428.66;463316;114;922987;-79
2023/01/02 01:41:27;;;;;;;11.76;10.76;;;;;;;7.14;83.62;101429.51;463344;114;922589;-78
2023/01/02 01:42:33;;;;;;;10.91;10.01;;;;;;;7.15;83.72;101427.64;463339;114;922579;-78
2023/01/02 01:43:51;;;;;;;11.42;10.62;;;;;;;7.12;83.61;101424.25;463760;112;922417;-79
2023/01/02 01:44:55;;;;;;;11.09;10.22;;;;;;;7.11;83.63;101419.83;463164;114;922510;-79
2023/01/02 01:45:58;;;;;;;10.74;9.94;;;;;;;7.11;83.65;101422.55;463337;114;922494;-79
2023/01/02 01:47:01;;;;;;;11.18;10.08;;;;;;;7.11;83.72;101419.02;463232;114;922582;-79
2023/01/02 01:48:05;;;;;;;10.99;10.04;;;;;;;7.09;83.78;101423.75;464122;112;930481;-78
2023/01/02 01:49:26;;;;;;;10.85;9.89;;;;;;;7.09;83.78;101423.75;471534;112;922913;-78
2023/01/02 01:50:32;;;;;;;11.16;10.14;;;;;;;7.08;83.72;101417.48;471437;112;922982;-78
2023/01/02 01:51:39;;;;;;;10.56;9.64;;;;;;;7.07;83.71;101420.36;471381;112;922573;-77
2023/01/02 01:52:45;;;;;;;11.16;10.32;;;;;;;7.07;83.76;101417.64;471229;112;922525;-79
2023/01/02 01:53:52;;;;;;;11.42;10.49;;;;;;;7.07;83.75;101417.64;464067;112;922511;-76
2023/01/02 01:55:02;;;;;;;11.52;10.63;;;;;;;7.05;83.89;101415.12;463189;114;922825;-80
2023/01/02 01:56:07;;;;;;;11.46;10.39;;;;;;;7.04;83.87;101412.58;462581;114;922529;-78
2023/01/02 01:57:14;;;;;;;11.29;10.37;;;;;;;7.04;83.77;101415.29;463127;114;930092;-77
2023/01/02 01:58:29;;;;;;;11.50;10.54;;;;;;;7.03;83.91;101421.72;463437;112;922615;-78
2023/01/02 01:59:34;;;;;;;11.63;10.74;;;;;;;7.01;83.81;101416.46;463189;114;922608;-78
2023/01/02 02:00:39;;;;;;;12.07;11.17;;;;;;;7.01;83.81;101423.75;463186;114;922604;-78
2023/01/02 02:01:43;;;;;;;11.78;10.92;;;;;;;6.99;83.92;101418.52;463172;114;922657;-78
2023/01/02 02:02:52;;;;;;;11.11;10.21;;;;;;;6.98;83.83;101414.11;463146;114;922502;-78
2023/01/02 02:03:55;;;;;;;11.11;10.23;;;;;;;6.98;83.95;101421.39;463177;114;922752;-76
2023/01/02 02:05:01;;;;;;;10.74;9.80;;;;;;;6.97;83.97;101419.70;463313;114;922468;-79
2023/01/02 02:06:04;;;;;;;12.00;11.06;;;;;;;6.96;83.83;101421.55;453828;117;930118;-78
2023/01/02 02:07:08;;;;;;;11.16;10.15;;;;;;;6.96;83.92;101426.13;463285;114;922597;-78
2023/01/02 02:08:26;;;;;;;10.84;9.85;;;;;;;6.96;83.80;101429.69;463792;112;922643;-77
2023/01/02 02:09:36;;;;;;;11.16;10.14;;;;;;;6.96;83.90;101423.41;462946;114;923347;-76
2023/01/02 02:10:40;;;;;;;11.15;10.29;;;;;;;6.95;83.83;101424.42;462790;114;922552;-79
2023/01/02 02:11:44;;;;;;;10.96;10.00;;;;;;;6.95;83.83;101429.85;463257;114;922787;-80
2023/01/02 02:12:47;;;;;;;10.09;9.41;;;;;;;6.93;83.95;101423.77;463318;114;923058;-79
2023/01/02 02:13:51;;;;;;;11.20;10.31;;;;;;;6.92;83.97;101430.20;463722;112;922503;-76
2023/01/02 02:14:54;;;;;;;11.44;10.53;;;;;;;6.92;83.88;101435.62;456655;116;922583;-78
2023/01/02 02:16:07;;;;;;;11.59;10.77;;;;;;;6.91;83.95;101437.48;456945;114;922636;-79
2023/01/02 02:17:16;;;;;;;11.80;10.91;;;;;;;6.91;83.98;101442.91;462925;114;922558;-78
2023/01/02 02:18:48;;;;;;;11.09;10.11;;;;;;;6.91;83.86;101447.48;461651;112;922431;-79
2023/01/02 02:20:20;;;;;;;11.73;10.76;;;;;;;6.90;83.87;101437.66;442198;120;923259;-78
2023/01/02 02:21:52;;;;;;;10.24;9.53;;;;;;;6.98;84.03;101435.80;478582;110;947536;-79
2023/01/02 02:23:14;;;;;;;11.59;10.58;;;;;;;6.87;84.11;101440.72;465205;114;923350;-77
2023/01/02 02:24:37;;;;;;;10.36;9.57;;;;;;;6.95;84.17;101441.55;477114;110;947374;-77
2023/01/02 02:26:06;;;;;;;10.97;10.19;;;;;;;6.84;84.13;101432.91;465848;113;922509;-77
2023/01/02 02:27:22;;;;;;;11.57;10.50;;;;;;;6.83;84.15;101431.23;457429;116;923924;-77
2023/01/02 02:29:00;;;;;;;11.45;10.39;;;;;;;6.83;84.22;101437.51;459046;115;922989;-78
2023/01/02 02:30:16;;;;;;;11.09;10.22;;;;;;;6.83;84.29;101433.95;458480;115;922519;-78
2023/01/02 02:31:25;;;;;;;11.74;10.83;;;;;;;6.82;84.30;101432.25;460328;115;923079;-78
2023/01/02 02:32:38;;;;;;;11.24;10.41;;;;;;;6.81;84.32;101430.55;455104;115;922831;-78
2023/01/02 02:33:51;;;;;;;11.16;10.33;;;;;;;6.80;84.34;101426.14;458145;114;922952;-77
2023/01/02 02:35:06;;;;;;;10.89;10.11;;;;;;;6.80;84.37;101424.28;457410;116;922486;-77
2023/01/02 02:36:22;;;;;;;10.87;10.08;;;;;;;6.80;84.37;101413.44;456881;115;922478;-78
2023/01/02 02:37:35;;;;;;;10.52;9.81;;;;;;;6.80;84.44;101421.56;457234;115;922581;-78
2023/01/02 02:38:57;;;;;;;11.30;10.44;;;;;;;6.80;84.42;101405.30;456929;115;922991;-78
2023/01/02 02:40:07;;;;;;;11.12;10.24;;;;;;;6.80;84.36;101409.87;456781;116;922507;-77
2023/01/02 02:42:01;;;;;;;10.01;9.16;;;;;;;6.90;84.47;101411.39;497869;105;947161;-78
2023/01/02 02:43:29;;;;;;;11.18;10.29;;;;;;;6.80;84.37;101413.44;482952;109;922521;-77
2023/01/02 02:44:54;;;;;;;10.27;9.49;;;;;;;6.80;84.56;101415.30;482090;109;923139;-78
2023/01/02 02:46:20;;;;;;;10.52;9.76;;;;;;;6.80;84.46;101418.86;481903;110;923099;-78
2023/01/02 02:47:42;;;;;;;11.21;10.01;;;;;;;6.80;84.60;101421.56;481905;110;923037;-79
2023/01/02 02:49:04;;;;;;;11.00;10.20;;;;;;;6.80;84.62;101418.86;476745;110;922442;-78
2023/01/02 02:50:32;;;;;;;10.82;10.02;;;;;;;6.79;84.63;101428.00;475811;110;922343;-78
2023/01/02 02:51:38;;;;;;;10.22;9.41;;;;;;;6.81;84.45;101422.41;475788;111;922980;-78
2023/01/02 02:52:48;;;;;;;10.97;10.12;;;;;;;6.81;84.45;101422.41;475693;110;922406;-79
2023/01/02 02:53:57;;;;;;;11.25;10.35;;;;;;;6.81;84.53;101420.56;475050;110;922447;-78
2023/01/02 02:55:17;;;;;;;11.13;10.27;;;;;;;6.94;84.51;101425.47;477077;110;947212;-80
2023/01/02 02:56:24;;;;;;;10.97;10.17;;;;;;;6.82;84.42;101419.55;468236;112;922526;-77
2023/01/02 02:57:29;;;;;;;11.16;10.26;;;;;;;6.83;84.50;101414.97;472061;112;922495;-78
2023/01/02 02:58:34;;;;;;;10.97;10.17;;;;;;;6.85;84.38;101421.05;470782;112;922505;-79
2023/01/02 02:59:40;;;;;;;11.77;10.81;;;;;;;6.84;84.41;101416.64;471432;112;923092;-78
2023/01/02 03:00:43;;;;;;;10.99;9.99;;;;;;;6.85;84.29;101419.19;471434;112;922953;-78
2023/01/02 03:01:46;;;;;;;10.86;10.16;;;;;;;6.86;84.22;101420.05;471601;112;922503;-77
2023/01/02 03:02:50;;;;;;;11.14;10.32;;;;;;;6.87;84.19;101416.31;471543;112;922452;-79
2023/01/02 03:03:53;;;;;;;10.84;10.05;;;;;;;6.87;84.22;101419.03;470635;112;922624;-79
2023/01/02 03:05:00;;;;;;;10.82;9.91;;;;;;;6.88;84.09;101418.02;471512;112;930398;-78
2023/01/02 03:06:19;;;;;;;10.68;9.84;;;;;;;6.88;84.14;101418.87;471403;112;922354;-79
2023/01/02 03:07:42;;;;;;;11.49;10.28;;;;;;;6.89;84.02;101417.00;471444;112;922440;-78
2023/01/02 03:09:14;;;;;;;10.97;10.11;;;;;;;6.89;84.05;101415.11;464176;112;922980;-78
2023/01/02 03:10:25;;;;;;;10.67;9.87;;;;;;;6.89;83.94;101408.88;463166;114;922529;-78
2023/01/02 03:11:48;;;;;;;11.81;10.58;;;;;;;6.89;84.05;101417.00;463173;114;922603;-78
2023/01/02 03:13:16;;;;;;;11.44;10.58;;;;;;;6.87;83.97;101414.45;463231;114;922611;-79
2023/01/02 03:14:25;;;;;;;10.93;9.85;;;;;;;6.87;84.06;101414.45;463090;114;922516;-78
2023/01/02 03:15:35;;;;;;;10.93;10.17;;;;;;;6.86;83.99;101420.89;463120;114;922834;-77
2023/01/02 03:16:41;;;;;;;11.21;10.28;;;;;;;6.85;84.06;101416.48;463434;114;923252;-80
2023/01/02 03:18:09;;;;;;;10.78;9.96;;;;;;;6.85;83.98;101413.77;463143;114;922498;-79
2023/01/02 03:19:28;;;;;;;10.73;9.77;;;;;;;6.86;83.98;101417.33;462622;114;922431;-77
2023/01/02 03:20:37;;;;;;;11.06;10.18;;;;;;;6.86;84.02;101411.91;463161;114;923456;-77
2023/01/02 03:21:47;;;;;;;10.08;9.32;;;;;;;6.85;83.95;101411.06;463107;114;922504;-78
2023/01/02 03:22:54;;;;;;;11.44;10.57;;;;;;;6.87;83.96;101419.03;463283;112;922885;-78
2023/01/02 03:24:01;;;;;;;11.44;10.56;;;;;;;6.85;84.01;101419.19;463194;114;922526;-79
2023/01/02 03:25:06;;;;;;;10.58;9.74;;;;;;;6.87;83.84;101424.45;463101;114;922945;-79
2023/01/02 03:26:13;;;;;;;10.89;10.14;;;;;;;6.87;83.92;101436.14;463164;114;922526;-77
2023/01/02 03:27:20;;;;;;;10.82;10.04;;;;;;;6.88;83.89;101432.42;454070;116;922699;-77
2023/01/02 03:28:25;;;;;;;10.04;9.24;;;;;;;6.87;83.87;101425.30;459077;112;923034;-79
2023/01/02 03:29:44;;;;;;;10.53;9.73;;;;;;;6.88;83.82;101434.28;471407;112;922520;-76
2023/01/02 03:30:51;;;;;;;9.99;9.07;;;;;;;6.88;83.70;101434.28;471425;112;923020;-80
2023/01/02 03:31:55;;;;;;;10.72;9.95;;;;;;;6.88;83.66;101437.84;471395;112;922721;-79
2023/01/02 03:33:11;;;;;;;10.94;10.06;;;;;;;6.89;83.74;101438.70;470611;112;922939;-76
2023/01/02 03:34:24;;;;;;;10.98;10.14;;;;;;;6.99;83.67;101431.23;472301;110;1204176;-78
2023/01/02 03:35:31;;;;;;;10.32;9.50;;;;;;;6.89;83.73;101425.95;465471;114;922571;-79
2023/01/02 03:36:38;;;;;;;10.98;10.11;;;;;;;6.90;83.61;101422.23;468500;112;923529;-79
2023/01/02 03:37:44;;;;;;;11.45;10.34;;;;;;;6.91;83.48;101436.64;471450;112;922572;-79
2023/01/02 03:38:51;;;;;;;10.42;9.63;;;;;;;6.90;83.56;101419.52;470335;112;923460;-77
2023/01/02 03:40:05;;;;;;;10.65;9.78;;;;;;;7.00;83.59;101420.19;477212;110;947653;-79
2023/01/02 03:41:20;;;;;;;10.76;9.87;;;;;;;6.89;83.55;101423.25;463945;113;922857;-79
2023/01/02 03:42:33;;;;;;;11.61;10.36;;;;;;;6.90;83.45;101427.66;457471;115;922462;-77
2023/01/02 03:43:39;;;;;;;11.18;10.28;;;;;;;6.90;83.42;101424.09;452083;114;923049;-78
2023/01/02 03:44:49;;;;;;;10.97;10.11;;;;;;;6.89;83.38;101427.85;449551;118;922514;-76
2023/01/02 03:45:56;;;;;;;11.43;10.42;;;;;;;6.87;83.46;101422.59;448700;117;922597;-76
2023/01/02 03:47:02;;;;;;;11.08;10.29;;;;;;;6.86;83.35;101423.60;448786;117;922544;-78
2023/01/02 03:48:44;;;;;;;10.94;10.08;;;;;;;6.96;83.46;101416.13;502974;103;933360;-77
2023/01/02 03:49:51;;;;;;;11.38;10.44;;;;;;;6.83;83.37;101414.97;492317;107;922447;-79
2023/01/02 03:50:58;;;;;;;11.12;10.23;;;;;;;6.82;83.40;101416.84;492467;107;922477;-78
2023/01/02 03:52:01;;;;;;;10.61;9.83;;;;;;;6.80;83.53;101416.15;487475;107;922884;-78
2023/01/02 03:53:04;;;;;;;11.09;10.16;;;;;;;6.80;83.61;101416.15;487841;107;922942;-77
2023/01/02 03:54:08;;;;;;;11.33;10.41;;;;;;;6.79;83.63;101408.17;486926;109;922535;-79
2023/01/02 03:55:12;;;;;;;10.35;9.59;;;;;;;6.78;83.67;101412.75;490964;107;922419;-78
2023/01/02 03:56:25;;;;;;;10.68;9.88;;;;;;;6.77;83.59;101405.66;492521;107;930444;-79
2023/01/02 03:57:38;;;;;;;11.67;10.75;;;;;;;6.78;83.67;101407.33;492971;106;922490;-78
2023/01/02 03:59:00;;;;;;;11.13;10.17;;;;;;;6.88;83.69;101402.60;469911;110;947680;-78
2023/01/02 04:00:13;;;;;;;11.13;10.03;;;;;;;6.77;83.63;101402.09;457464;115;922525;-78
2023/01/02 04:01:23;;;;;;;11.57;10.68;;;;;;;6.76;83.57;101400.40;459131;114;922415;-78
2023/01/02 04:02:45;;;;;;;10.16;9.36;;;;;;;6.76;83.57;101401.25;464284;114;922530;-80
2023/01/02 04:03:59;;;;;;;10.65;9.84;;;;;;;6.76;83.58;101394.98;465042;112;922523;-78
2023/01/02 04:05:25;;;;;;;11.06;10.19;;;;;;;6.76;83.56;101403.11;464664;114;922402;-76
2023/01/02 04:06:32;;;;;;;10.60;9.89;;;;;;;6.75;83.58;101407.68;464651;114;922873;-79
2023/01/02 04:07:42;;;;;;;10.38;9.62;;;;;;;6.74;83.62;101399.71;464697;114;922697;-78
2023/01/02 04:08:49;;;;;;;11.01;10.21;;;;;;;6.71;83.47;101409.05;470707;112;922828;-76
2023/01/02 04:09:52;;;;;;;10.92;9.95;;;;;;;6.70;83.50;101404.63;473009;112;922577;-77
2023/01/02 04:10:58;;;;;;;10.12;9.26;;;;;;;6.70;83.52;101410.05;473107;112;922843;-79
2023/01/02 04:12:05;;;;;;;11.21;10.31;;;;;;;6.68;83.49;101402.09;473001;112;922478;-78
2023/01/02 04:13:13;;;;;;;10.77;9.92;;;;;;;6.68;83.47;101395.81;471262;112;922538;-78
2023/01/02 04:14:22;;;;;;;10.16;9.44;;;;;;;6.68;83.45;101403.95;455942;116;922969;-77
2023/01/02 04:15:27;;;;;;;10.00;9.21;;;;;;;6.69;83.42;101402.94;457201;114;923231;-78
2023/01/02 04:16:33;;;;;;;10.89;9.96;;;;;;;6.69;83.40;101408.36;464682;114;922672;-78
2023/01/02 04:17:48;;;;;;;9.78;9.04;;;;;;;6.69;83.36;101413.78;464690;114;922979;-78
2023/01/02 04:18:58;;;;;;;10.19;9.48;;;;;;;6.69;83.33;101403.78;464693;114;922829;-78
2023/01/02 04:20:05;;;;;;;10.43;9.50;;;;;;;6.69;83.29;101408.36;464578;114;922914;-77
2023/01/02 04:21:12;;;;;;;10.56;9.73;;;;;;;6.68;83.38;101412.92;464671;114;922627;-78
2023/01/02 04:22:18;;;;;;;11.07;10.17;;;;;;;6.67;83.26;101411.22;464678;114;922513;-78
2023/01/02 04:23:40;;;;;;;10.92;10.09;;;;;;;6.67;83.22;101407.70;464826;112;923463;-76
2023/01/02 04:24:47;;;;;;;9.71;9.03;;;;;;;6.68;83.21;101406.66;464711;114;922480;-77
2023/01/02 04:26:00;;;;;;;10.86;10.08;;;;;;;6.66;83.17;101406.84;464659;114;922463;-76
2023/01/02 04:27:06;;;;;;;10.29;9.47;;;;;;;6.66;83.13;101414.13;464678;114;922632;-76
2023/01/02 04:28:19;;;;;;;11.18;10.36;;;;;;;6.64;83.10;101408.02;464722;112;922478;-77
2023/01/02 04:29:24;;;;;;;10.85;10.05;;;;;;;6.63;83.02;101407.17;464577;114;922552;-77
2023/01/02 04:30:30;;;;;;;10.62;9.82;;;;;;;6.62;83.02;101412.75;464800;114;922596;-77
2023/01/02 04:31:36;;;;;;;10.88;10.08;;;;;;;6.60;83.03;101412.09;464632;114;922598;-78
2023/01/02 04:32:42;;;;;;;10.57;9.77;;;;;;;6.60;83.06;101409.38;464674;114;922617;-78
2023/01/02 04:33:49;;;;;;;11.27;10.47;;;;;;;6.60;83.12;101407.52;464870;112;922525;-77
2023/01/02 04:34:53;;;;;;;11.89;10.92;;;;;;;6.60;83.08;101409.38;464739;114;922543;-78
2023/01/02 04:35:57;;;;;;;10.96;10.14;;;;;;;6.59;82.94;101413.09;464723;114;922554;-77
2023/01/02 04:37:00;;;;;;;11.09;10.27;;;;;;;6.59;82.99;101413.95;464790;114;922710;-77
2023/01/02 04:38:11;;;;;;;10.39;9.66;;;;;;;6.59;82.92;101415.81;464828;112;929979;-77
2023/01/02 04:39:14;;;;;;;10.24;9.50;;;;;;;6.57;82.98;101420.53;464817;114;922756;-77
2023/01/02 04:40:29;;;;;;;11.41;10.49;;;;;;;6.57;82.99;101423.25;464726;114;922522;-79
2023/01/02 04:41:33;;;;;;;11.19;10.29;;;;;;;6.55;82.87;101425.30;464555;114;930643;-77
2023/01/02 04:42:37;;;;;;;11.50;10.60;;;;;;;6.54;82.94;101421.73;464841;114;922840;-78
2023/01/02 04:43:40;;;;;;;11.75;10.84;;;;;;;6.52;82.85;101421.05;470726;112;922525;-76
2023/01/02 04:44:43;;;;;;;11.48;10.68;;;;;;;6.51;82.96;101426.63;473263;112;922481;-77
2023/01/02 04:45:47;;;;;;;11.26;10.38;;;;;;;6.50;82.91;101425.81;473183;112;922490;-79
2023/01/02 04:46:50;;;;;;;12.00;11.00;;;;;;;6.49;82.98;101424.11;473129;112;922472;-76
2023/01/02 04:47:54;;;;;;;12.15;11.20;;;;;;;6.48;82.93;101416.98;472970;112;922816;-77
2023/01/02 04:48:57;;;;;;;10.94;10.14;;;;;;;6.47;83.01;101431.55;464831;114;922998;-79
2023/01/02 04:50:00;;;;;;;11.84;10.79;;;;;;;6.46;83.01;101421.72;464823;114;922578;-78
2023/01/02 04:51:03;;;;;;;11.53;10.63;;;;;;;6.46;83.00;101420.87;464857;114;922991;-78
2023/01/02 04:52:07;;;;;;;12.33;11.11;;;;;;;6.44;82.98;101423.77;464894;114;923037;-77
2023/01/02 04:53:10;;;;;;;11.34;10.31;;;;;;;6.43;82.97;101427.48;464806;114;922450;-78
2023/01/02 04:54:13;;;;;;;11.49;10.69;;;;;;;6.42;82.99;101414.95;464826;114;922504;-78
2023/01/02 04:55:16;;;;;;;11.62;10.71;;;;;;;6.40;83.08;101421.53;464799;112;930278;-79
2023/01/02 04:56:21;;;;;;;12.12;11.06;;;;;;;6.40;83.13;101429.66;464777;113;922532;-77
2023/01/02 04:57:24;;;;;;;11.79;10.99;;;;;;;6.37;83.17;101425.44;464778;113;922531;-76
2023/01/02 04:58:27;;;;;;;11.40;10.31;;;;;;;6.36;83.11;101423.73;463789;112;923229;-78
2023/01/02 04:59:30;;;;;;;11.76;10.76;;;;;;;6.36;83.14;101423.73;459271;115;922587;-76
2023/01/02 05:00:34;;;;;;;11.98;11.09;;;;;;;6.37;83.28;101430.01;459282;115;923004;-76
2023/01/02 05:01:37;;;;;;;12.03;11.01;;;;;;;6.35;83.21;101432.88;459302;115;922496;-77
2023/01/02 05:02:40;;;;;;;10.88;10.02;;;;;;;6.35;83.35;101432.88;447894;118;922667;-76
2023/01/02 05:03:45;;;;;;;11.79;10.88;;;;;;;6.35;83.39;101435.58;446779;118;922674;-77
2023/01/02 05:04:49;;;;;;;12.07;11.16;;;;;;;6.35;83.38;101434.73;455133;116;922540;-78
2023/01/02 05:05:55;;;;;;;11.09;10.16;;;;;;;6.36;83.52;101436.44;455308;116;922536;-79
2023/01/02 05:07:06;;;;;;;11.05;10.25;;;;;;;6.48;83.62;101451.36;477184;110;947237;-77
2023/01/02 05:08:09;;;;;;;10.38;9.56;;;;;;;6.37;83.53;101451.67;463571;112;922969;-77
2023/01/02 05:09:15;;;;;;;11.18;10.27;;;;;;;6.38;83.70;101459.64;456498;116;930430;-77
2023/01/02 05:10:19;;;;;;;10.90;9.99;;;;;;;6.40;83.71;101467.58;457457;116;922499;-78